<?xml version="1.0" encoding="UTF-8" standalone="no" ?>
<gpx xmlns="http://www.topografix.com/GPX/1/1" xmlns:xsi="http://www.w3.org/2001/XMLSchema-instance" xsi:schemaLocation="http://www.topografix.com/GPX/1/1 http://www.topografix.com/GPX/1/1/gpx.xsd" version="1.1" creator="VisuGPX - https://www.visugpx.com">
  <metadata>
    <name>2019-01-24-46-Pradines</name>
    <desc><![CDATA[randonnée de 11 km pour environ 200m de dénivelé positif côte au départ avant d'avoir les paysages sur la vallée, balade en bord du LOT et le chateau de Mercues]]></desc>
  </metadata>
  <trk>
    <name><![CDATA[9488765-pradines 24-01-2019]]></name>
    <trkseg>
      <trkpt lat="44.46963" lon="1.41035">
        <ele>148</ele>
        <time>2019-01-20T15:50:06Z</time>
      </trkpt>
      <trkpt lat="44.46945" lon="1.41009">
        <ele>147</ele>
        <time>2019-01-20T15:51:06Z</time>
      </trkpt>
      <trkpt lat="44.46935" lon="1.40988">
        <ele>147</ele>
        <time>2019-01-20T15:52:06Z</time>
      </trkpt>
      <trkpt lat="44.4693" lon="1.40972">
        <ele>147</ele>
        <time>2019-01-20T15:53:06Z</time>
      </trkpt>
      <trkpt lat="44.46919" lon="1.40949">
        <ele>146</ele>
        <time>2019-01-20T15:54:06Z</time>
      </trkpt>
      <trkpt lat="44.46912" lon="1.40941">
        <ele>146</ele>
        <time>2019-01-20T15:55:06Z</time>
      </trkpt>
      <trkpt lat="44.469" lon="1.40947">
        <ele>146</ele>
        <time>2019-01-20T15:56:06Z</time>
      </trkpt>
      <trkpt lat="44.46886" lon="1.40942">
        <ele>146</ele>
        <time>2019-01-20T15:57:06Z</time>
      </trkpt>
      <trkpt lat="44.46879" lon="1.4092">
        <ele>146</ele>
        <time>2019-01-20T15:58:06Z</time>
      </trkpt>
      <trkpt lat="44.46876" lon="1.40874">
        <ele>146</ele>
        <time>2019-01-20T15:59:06Z</time>
      </trkpt>
      <trkpt lat="44.46884" lon="1.40817">
        <ele>144</ele>
        <time>2019-01-20T16:00:06Z</time>
      </trkpt>
      <trkpt lat="44.46886" lon="1.4078">
        <ele>144</ele>
        <time>2019-01-20T16:01:06Z</time>
      </trkpt>
      <trkpt lat="44.46887" lon="1.40724">
        <ele>144</ele>
        <time>2019-01-20T16:02:06Z</time>
      </trkpt>
      <trkpt lat="44.46886" lon="1.40672">
        <ele>145</ele>
        <time>2019-01-20T16:03:06Z</time>
      </trkpt>
      <trkpt lat="44.46886" lon="1.40626">
        <ele>146</ele>
        <time>2019-01-20T16:04:06Z</time>
      </trkpt>
      <trkpt lat="44.46885" lon="1.40599">
        <ele>147</ele>
        <time>2019-01-20T16:05:06Z</time>
      </trkpt>
      <trkpt lat="44.46877" lon="1.40586">
        <ele>147</ele>
        <time>2019-01-20T16:06:06Z</time>
      </trkpt>
      <trkpt lat="44.46865" lon="1.40586">
        <ele>148</ele>
        <time>2019-01-20T16:07:06Z</time>
      </trkpt>
      <trkpt lat="44.46846" lon="1.40584">
        <ele>148</ele>
        <time>2019-01-20T16:08:06Z</time>
      </trkpt>
      <trkpt lat="44.46832" lon="1.40584">
        <ele>148</ele>
        <time>2019-01-20T16:09:06Z</time>
      </trkpt>
      <trkpt lat="44.46826" lon="1.40569">
        <ele>148</ele>
        <time>2019-01-20T16:10:06Z</time>
      </trkpt>
      <trkpt lat="44.46804" lon="1.40577">
        <ele>147</ele>
        <time>2019-01-20T16:11:06Z</time>
      </trkpt>
      <trkpt lat="44.46778" lon="1.4058">
        <ele>147</ele>
        <time>2019-01-20T16:12:06Z</time>
      </trkpt>
      <trkpt lat="44.46756" lon="1.40592">
        <ele>146</ele>
        <time>2019-01-20T16:13:06Z</time>
      </trkpt>
      <trkpt lat="44.46746" lon="1.40588">
        <ele>146</ele>
        <time>2019-01-20T16:14:06Z</time>
      </trkpt>
      <trkpt lat="44.46736" lon="1.40589">
        <ele>146</ele>
        <time>2019-01-20T16:15:06Z</time>
      </trkpt>
      <trkpt lat="44.4673" lon="1.40587">
        <ele>146</ele>
        <time>2019-01-20T16:16:06Z</time>
      </trkpt>
      <trkpt lat="44.46723" lon="1.40581">
        <ele>146</ele>
        <time>2019-01-20T16:17:06Z</time>
      </trkpt>
      <trkpt lat="44.46739" lon="1.40542">
        <ele>147</ele>
        <time>2019-01-20T16:18:06Z</time>
      </trkpt>
      <trkpt lat="44.46749" lon="1.40501">
        <ele>149</ele>
        <time>2019-01-20T16:19:06Z</time>
      </trkpt>
      <trkpt lat="44.46755" lon="1.4046">
        <ele>153</ele>
        <time>2019-01-20T16:20:06Z</time>
      </trkpt>
      <trkpt lat="44.46763" lon="1.40413">
        <ele>158</ele>
        <time>2019-01-20T16:21:06Z</time>
      </trkpt>
      <trkpt lat="44.46773" lon="1.40371">
        <ele>164</ele>
        <time>2019-01-20T16:22:06Z</time>
      </trkpt>
      <trkpt lat="44.46805" lon="1.40351">
        <ele>169</ele>
        <time>2019-01-20T16:23:06Z</time>
      </trkpt>
      <trkpt lat="44.46846" lon="1.40341">
        <ele>173</ele>
        <time>2019-01-20T16:24:06Z</time>
      </trkpt>
      <trkpt lat="44.4689" lon="1.40329">
        <ele>177</ele>
        <time>2019-01-20T16:25:06Z</time>
      </trkpt>
      <trkpt lat="44.46931" lon="1.4032">
        <ele>180</ele>
        <time>2019-01-20T16:26:06Z</time>
      </trkpt>
      <trkpt lat="44.46916" lon="1.40303">
        <ele>182</ele>
        <time>2019-01-20T16:27:06Z</time>
      </trkpt>
      <trkpt lat="44.46889" lon="1.40288">
        <ele>183</ele>
        <time>2019-01-20T16:28:06Z</time>
      </trkpt>
      <trkpt lat="44.46863" lon="1.40271">
        <ele>185</ele>
        <time>2019-01-20T16:29:06Z</time>
      </trkpt>
      <trkpt lat="44.46836" lon="1.40257">
        <ele>187</ele>
        <time>2019-01-20T16:30:06Z</time>
      </trkpt>
      <trkpt lat="44.46807" lon="1.4023">
        <ele>188</ele>
        <time>2019-01-20T16:31:06Z</time>
      </trkpt>
      <trkpt lat="44.4678" lon="1.4021">
        <ele>187</ele>
        <time>2019-01-20T16:32:06Z</time>
      </trkpt>
      <trkpt lat="44.46757" lon="1.40195">
        <ele>188</ele>
        <time>2019-01-20T16:33:06Z</time>
      </trkpt>
      <trkpt lat="44.46734" lon="1.4017">
        <ele>190</ele>
        <time>2019-01-20T16:34:06Z</time>
      </trkpt>
      <trkpt lat="44.46723" lon="1.4015">
        <ele>191</ele>
        <time>2019-01-20T16:35:06Z</time>
      </trkpt>
      <trkpt lat="44.46714" lon="1.40145">
        <ele>192</ele>
        <time>2019-01-20T16:36:06Z</time>
      </trkpt>
      <trkpt lat="44.46692" lon="1.40129">
        <ele>194</ele>
        <time>2019-01-20T16:37:06Z</time>
      </trkpt>
      <trkpt lat="44.46663" lon="1.40115">
        <ele>198</ele>
        <time>2019-01-20T16:38:06Z</time>
      </trkpt>
      <trkpt lat="44.46641" lon="1.40109">
        <ele>200</ele>
        <time>2019-01-20T16:39:06Z</time>
      </trkpt>
      <trkpt lat="44.46613" lon="1.40107">
        <ele>202</ele>
        <time>2019-01-20T16:40:06Z</time>
      </trkpt>
      <trkpt lat="44.46594" lon="1.40102">
        <ele>204</ele>
        <time>2019-01-20T16:41:06Z</time>
      </trkpt>
      <trkpt lat="44.4657" lon="1.40094">
        <ele>206</ele>
        <time>2019-01-20T16:42:06Z</time>
      </trkpt>
      <trkpt lat="44.46546" lon="1.4009">
        <ele>208</ele>
        <time>2019-01-20T16:43:06Z</time>
      </trkpt>
      <trkpt lat="44.46524" lon="1.40091">
        <ele>210</ele>
        <time>2019-01-20T16:44:06Z</time>
      </trkpt>
      <trkpt lat="44.46499" lon="1.40097">
        <ele>211</ele>
        <time>2019-01-20T16:45:06Z</time>
      </trkpt>
      <trkpt lat="44.46474" lon="1.40093">
        <ele>212</ele>
        <time>2019-01-20T16:46:06Z</time>
      </trkpt>
      <trkpt lat="44.46448" lon="1.40087">
        <ele>214</ele>
        <time>2019-01-20T16:47:06Z</time>
      </trkpt>
      <trkpt lat="44.46425" lon="1.40086">
        <ele>215</ele>
        <time>2019-01-20T16:48:06Z</time>
      </trkpt>
      <trkpt lat="44.46395" lon="1.40085">
        <ele>217</ele>
        <time>2019-01-20T16:49:06Z</time>
      </trkpt>
      <trkpt lat="44.46372" lon="1.40088">
        <ele>219</ele>
        <time>2019-01-20T16:50:06Z</time>
      </trkpt>
      <trkpt lat="44.46336" lon="1.40085">
        <ele>222</ele>
        <time>2019-01-20T16:51:06Z</time>
      </trkpt>
      <trkpt lat="44.46325" lon="1.4008">
        <ele>224</ele>
        <time>2019-01-20T16:52:06Z</time>
      </trkpt>
      <trkpt lat="44.46291" lon="1.40074">
        <ele>230</ele>
        <time>2019-01-20T16:53:06Z</time>
      </trkpt>
      <trkpt lat="44.46273" lon="1.40068">
        <ele>234</ele>
        <time>2019-01-20T16:54:06Z</time>
      </trkpt>
      <trkpt lat="44.46249" lon="1.40058">
        <ele>240</ele>
        <time>2019-01-20T16:55:06Z</time>
      </trkpt>
      <trkpt lat="44.46231" lon="1.40051">
        <ele>243</ele>
        <time>2019-01-20T16:56:06Z</time>
      </trkpt>
      <trkpt lat="44.46216" lon="1.40034">
        <ele>247</ele>
        <time>2019-01-20T16:57:06Z</time>
      </trkpt>
      <trkpt lat="44.462" lon="1.40019">
        <ele>251</ele>
        <time>2019-01-20T16:58:06Z</time>
      </trkpt>
      <trkpt lat="44.46183" lon="1.40018">
        <ele>253</ele>
        <time>2019-01-20T16:59:06Z</time>
      </trkpt>
      <trkpt lat="44.4617" lon="1.40016">
        <ele>255</ele>
        <time>2019-01-20T17:00:06Z</time>
      </trkpt>
      <trkpt lat="44.46163" lon="1.40005">
        <ele>257</ele>
        <time>2019-01-20T17:01:06Z</time>
      </trkpt>
      <trkpt lat="44.4617" lon="1.39989">
        <ele>257</ele>
        <time>2019-01-20T17:02:06Z</time>
      </trkpt>
      <trkpt lat="44.46161" lon="1.39994">
        <ele>257</ele>
        <time>2019-01-20T17:03:06Z</time>
      </trkpt>
      <trkpt lat="44.46151" lon="1.39988">
        <ele>257</ele>
        <time>2019-01-20T17:04:06Z</time>
      </trkpt>
      <trkpt lat="44.46141" lon="1.39984">
        <ele>256</ele>
        <time>2019-01-20T17:05:06Z</time>
      </trkpt>
      <trkpt lat="44.46131" lon="1.4">
        <ele>257</ele>
        <time>2019-01-20T17:06:06Z</time>
      </trkpt>
      <trkpt lat="44.46123" lon="1.40026">
        <ele>256</ele>
        <time>2019-01-20T17:07:06Z</time>
      </trkpt>
      <trkpt lat="44.46113" lon="1.40035">
        <ele>257</ele>
        <time>2019-01-20T17:08:06Z</time>
      </trkpt>
      <trkpt lat="44.46096" lon="1.40042">
        <ele>257</ele>
        <time>2019-01-20T17:09:06Z</time>
      </trkpt>
      <trkpt lat="44.46084" lon="1.40065">
        <ele>259</ele>
        <time>2019-01-20T17:10:06Z</time>
      </trkpt>
      <trkpt lat="44.46063" lon="1.40083">
        <ele>259</ele>
        <time>2019-01-20T17:11:06Z</time>
      </trkpt>
      <trkpt lat="44.46045" lon="1.40086">
        <ele>259</ele>
        <time>2019-01-20T17:12:06Z</time>
      </trkpt>
      <trkpt lat="44.4602" lon="1.40083">
        <ele>258</ele>
        <time>2019-01-20T17:13:06Z</time>
      </trkpt>
      <trkpt lat="44.45996" lon="1.40077">
        <ele>257</ele>
        <time>2019-01-20T17:14:06Z</time>
      </trkpt>
      <trkpt lat="44.45976" lon="1.4007">
        <ele>255</ele>
        <time>2019-01-20T17:15:06Z</time>
      </trkpt>
      <trkpt lat="44.4596" lon="1.40062">
        <ele>254</ele>
        <time>2019-01-20T17:16:06Z</time>
      </trkpt>
      <trkpt lat="44.45946" lon="1.40063">
        <ele>253</ele>
        <time>2019-01-20T17:17:06Z</time>
      </trkpt>
      <trkpt lat="44.45932" lon="1.40062">
        <ele>253</ele>
        <time>2019-01-20T17:18:06Z</time>
      </trkpt>
      <trkpt lat="44.4591" lon="1.40046">
        <ele>251</ele>
        <time>2019-01-20T17:19:06Z</time>
      </trkpt>
      <trkpt lat="44.45901" lon="1.40041">
        <ele>250</ele>
        <time>2019-01-20T17:20:06Z</time>
      </trkpt>
      <trkpt lat="44.45891" lon="1.4003">
        <ele>249</ele>
        <time>2019-01-20T17:21:06Z</time>
      </trkpt>
      <trkpt lat="44.45853" lon="1.40014">
        <ele>248</ele>
        <time>2019-01-20T17:22:06Z</time>
      </trkpt>
      <trkpt lat="44.45829" lon="1.40008">
        <ele>248</ele>
        <time>2019-01-20T17:23:06Z</time>
      </trkpt>
      <trkpt lat="44.45799" lon="1.39992">
        <ele>249</ele>
        <time>2019-01-20T17:24:06Z</time>
      </trkpt>
      <trkpt lat="44.45774" lon="1.39972">
        <ele>249</ele>
        <time>2019-01-20T17:25:06Z</time>
      </trkpt>
      <trkpt lat="44.45746" lon="1.39951">
        <ele>248</ele>
        <time>2019-01-20T17:26:06Z</time>
      </trkpt>
      <trkpt lat="44.45725" lon="1.39938">
        <ele>249</ele>
        <time>2019-01-20T17:27:06Z</time>
      </trkpt>
      <trkpt lat="44.45695" lon="1.39913">
        <ele>249</ele>
        <time>2019-01-20T17:28:06Z</time>
      </trkpt>
      <trkpt lat="44.45673" lon="1.39902">
        <ele>249</ele>
        <time>2019-01-20T17:29:06Z</time>
      </trkpt>
      <trkpt lat="44.45655" lon="1.39896">
        <ele>248</ele>
        <time>2019-01-20T17:30:06Z</time>
      </trkpt>
      <trkpt lat="44.45637" lon="1.39888">
        <ele>246</ele>
        <time>2019-01-20T17:31:06Z</time>
      </trkpt>
      <trkpt lat="44.45618" lon="1.39882">
        <ele>245</ele>
        <time>2019-01-20T17:32:06Z</time>
      </trkpt>
      <trkpt lat="44.45598" lon="1.3988">
        <ele>244</ele>
        <time>2019-01-20T17:33:06Z</time>
      </trkpt>
      <trkpt lat="44.45581" lon="1.39878">
        <ele>243</ele>
        <time>2019-01-20T17:34:06Z</time>
      </trkpt>
      <trkpt lat="44.45562" lon="1.39866">
        <ele>241</ele>
        <time>2019-01-20T17:35:06Z</time>
      </trkpt>
      <trkpt lat="44.45539" lon="1.3985">
        <ele>240</ele>
        <time>2019-01-20T17:36:06Z</time>
      </trkpt>
      <trkpt lat="44.45527" lon="1.39835">
        <ele>241</ele>
        <time>2019-01-20T17:37:06Z</time>
      </trkpt>
      <trkpt lat="44.45523" lon="1.39796">
        <ele>242</ele>
        <time>2019-01-20T17:38:06Z</time>
      </trkpt>
      <trkpt lat="44.4552" lon="1.39768">
        <ele>243</ele>
        <time>2019-01-20T17:39:06Z</time>
      </trkpt>
      <trkpt lat="44.45519" lon="1.39719">
        <ele>245</ele>
        <time>2019-01-20T17:40:06Z</time>
      </trkpt>
      <trkpt lat="44.45527" lon="1.39674">
        <ele>245</ele>
        <time>2019-01-20T17:41:06Z</time>
      </trkpt>
      <trkpt lat="44.45536" lon="1.39624">
        <ele>244</ele>
        <time>2019-01-20T17:42:06Z</time>
      </trkpt>
      <trkpt lat="44.45549" lon="1.3958">
        <ele>243</ele>
        <time>2019-01-20T17:43:06Z</time>
      </trkpt>
      <trkpt lat="44.45559" lon="1.39537">
        <ele>239</ele>
        <time>2019-01-20T17:44:06Z</time>
      </trkpt>
      <trkpt lat="44.45578" lon="1.39514">
        <ele>235</ele>
        <time>2019-01-20T17:45:06Z</time>
      </trkpt>
      <trkpt lat="44.45601" lon="1.39501">
        <ele>231</ele>
        <time>2019-01-20T17:46:06Z</time>
      </trkpt>
      <trkpt lat="44.45605" lon="1.39485">
        <ele>229</ele>
        <time>2019-01-20T17:47:06Z</time>
      </trkpt>
      <trkpt lat="44.45597" lon="1.39474">
        <ele>229</ele>
        <time>2019-01-20T17:48:06Z</time>
      </trkpt>
      <trkpt lat="44.45614" lon="1.39441">
        <ele>224</ele>
        <time>2019-01-20T17:49:06Z</time>
      </trkpt>
      <trkpt lat="44.45618" lon="1.39428">
        <ele>223</ele>
        <time>2019-01-20T17:50:06Z</time>
      </trkpt>
      <trkpt lat="44.45613" lon="1.39418">
        <ele>222</ele>
        <time>2019-01-20T17:51:06Z</time>
      </trkpt>
      <trkpt lat="44.45621" lon="1.39409">
        <ele>222</ele>
        <time>2019-01-20T17:52:06Z</time>
      </trkpt>
      <trkpt lat="44.45632" lon="1.39358">
        <ele>222</ele>
        <time>2019-01-20T17:53:06Z</time>
      </trkpt>
      <trkpt lat="44.4565" lon="1.39297">
        <ele>227</ele>
        <time>2019-01-20T17:54:06Z</time>
      </trkpt>
      <trkpt lat="44.4567" lon="1.39276">
        <ele>232</ele>
        <time>2019-01-20T17:55:06Z</time>
      </trkpt>
      <trkpt lat="44.45688" lon="1.39273">
        <ele>233</ele>
        <time>2019-01-20T17:56:06Z</time>
      </trkpt>
      <trkpt lat="44.45687" lon="1.39248">
        <ele>234</ele>
        <time>2019-01-20T17:57:06Z</time>
      </trkpt>
      <trkpt lat="44.45709" lon="1.39251">
        <ele>236</ele>
        <time>2019-01-20T17:58:06Z</time>
      </trkpt>
      <trkpt lat="44.4573" lon="1.39226">
        <ele>237</ele>
        <time>2019-01-20T17:59:06Z</time>
      </trkpt>
      <trkpt lat="44.45754" lon="1.39205">
        <ele>237</ele>
        <time>2019-01-20T18:00:06Z</time>
      </trkpt>
      <trkpt lat="44.45762" lon="1.39204">
        <ele>238</ele>
        <time>2019-01-20T18:01:06Z</time>
      </trkpt>
      <trkpt lat="44.45782" lon="1.39186">
        <ele>237</ele>
        <time>2019-01-20T18:02:06Z</time>
      </trkpt>
      <trkpt lat="44.45792" lon="1.39175">
        <ele>237</ele>
        <time>2019-01-20T18:03:06Z</time>
      </trkpt>
      <trkpt lat="44.45805" lon="1.39154">
        <ele>235</ele>
        <time>2019-01-20T18:04:06Z</time>
      </trkpt>
      <trkpt lat="44.4582" lon="1.39157">
        <ele>236</ele>
        <time>2019-01-20T18:05:06Z</time>
      </trkpt>
      <trkpt lat="44.45825" lon="1.39184">
        <ele>239</ele>
        <time>2019-01-20T18:06:06Z</time>
      </trkpt>
      <trkpt lat="44.45832" lon="1.39215">
        <ele>241</ele>
        <time>2019-01-20T18:07:06Z</time>
      </trkpt>
      <trkpt lat="44.45843" lon="1.39241">
        <ele>241</ele>
        <time>2019-01-20T18:08:06Z</time>
      </trkpt>
      <trkpt lat="44.45853" lon="1.39267">
        <ele>238</ele>
        <time>2019-01-20T18:09:06Z</time>
      </trkpt>
      <trkpt lat="44.45851" lon="1.39293">
        <ele>235</ele>
        <time>2019-01-20T18:10:06Z</time>
      </trkpt>
      <trkpt lat="44.45838" lon="1.39315">
        <ele>234</ele>
        <time>2019-01-20T18:11:06Z</time>
      </trkpt>
      <trkpt lat="44.45826" lon="1.3934">
        <ele>230</ele>
        <time>2019-01-20T18:12:06Z</time>
      </trkpt>
      <trkpt lat="44.45818" lon="1.39369">
        <ele>222</ele>
        <time>2019-01-20T18:13:06Z</time>
      </trkpt>
      <trkpt lat="44.4581" lon="1.39406">
        <ele>214</ele>
        <time>2019-01-20T18:14:06Z</time>
      </trkpt>
      <trkpt lat="44.458" lon="1.39441">
        <ele>208</ele>
        <time>2019-01-20T18:15:06Z</time>
      </trkpt>
      <trkpt lat="44.45791" lon="1.39466">
        <ele>206</ele>
        <time>2019-01-20T18:16:06Z</time>
      </trkpt>
      <trkpt lat="44.45769" lon="1.39493">
        <ele>205</ele>
        <time>2019-01-20T18:17:06Z</time>
      </trkpt>
      <trkpt lat="44.45753" lon="1.39497">
        <ele>206</ele>
        <time>2019-01-20T18:18:06Z</time>
      </trkpt>
      <trkpt lat="44.4574" lon="1.39508">
        <ele>208</ele>
        <time>2019-01-20T18:19:06Z</time>
      </trkpt>
      <trkpt lat="44.45724" lon="1.39528">
        <ele>210</ele>
        <time>2019-01-20T18:20:06Z</time>
      </trkpt>
      <trkpt lat="44.45724" lon="1.39558">
        <ele>209</ele>
        <time>2019-01-20T18:21:06Z</time>
      </trkpt>
      <trkpt lat="44.45743" lon="1.39582">
        <ele>204</ele>
        <time>2019-01-20T18:22:06Z</time>
      </trkpt>
      <trkpt lat="44.45768" lon="1.396">
        <ele>204</ele>
        <time>2019-01-20T18:23:06Z</time>
      </trkpt>
      <trkpt lat="44.45794" lon="1.39595">
        <ele>203</ele>
        <time>2019-01-20T18:24:06Z</time>
      </trkpt>
      <trkpt lat="44.45812" lon="1.39573">
        <ele>201</ele>
        <time>2019-01-20T18:25:06Z</time>
      </trkpt>
      <trkpt lat="44.45837" lon="1.3953">
        <ele>199</ele>
        <time>2019-01-20T18:26:06Z</time>
      </trkpt>
      <trkpt lat="44.45872" lon="1.39494">
        <ele>196</ele>
        <time>2019-01-20T18:27:06Z</time>
      </trkpt>
      <trkpt lat="44.45901" lon="1.39473">
        <ele>196</ele>
        <time>2019-01-20T18:28:06Z</time>
      </trkpt>
      <trkpt lat="44.45958" lon="1.39471">
        <ele>191</ele>
        <time>2019-01-20T18:29:06Z</time>
      </trkpt>
      <trkpt lat="44.46006" lon="1.39473">
        <ele>186</ele>
        <time>2019-01-20T18:30:06Z</time>
      </trkpt>
      <trkpt lat="44.46053" lon="1.3948">
        <ele>185</ele>
        <time>2019-01-20T18:31:06Z</time>
      </trkpt>
      <trkpt lat="44.46073" lon="1.39444">
        <ele>182</ele>
        <time>2019-01-20T18:32:06Z</time>
      </trkpt>
      <trkpt lat="44.46104" lon="1.39397">
        <ele>182</ele>
        <time>2019-01-20T18:33:06Z</time>
      </trkpt>
      <trkpt lat="44.46159" lon="1.39344">
        <ele>176</ele>
        <time>2019-01-20T18:34:06Z</time>
      </trkpt>
      <trkpt lat="44.46201" lon="1.39308">
        <ele>174</ele>
        <time>2019-01-20T18:35:06Z</time>
      </trkpt>
      <trkpt lat="44.46232" lon="1.39259">
        <ele>168</ele>
        <time>2019-01-20T18:36:06Z</time>
      </trkpt>
      <trkpt lat="44.46277" lon="1.39221">
        <ele>164</ele>
        <time>2019-01-20T18:37:06Z</time>
      </trkpt>
      <trkpt lat="44.46313" lon="1.39184">
        <ele>161</ele>
        <time>2019-01-20T18:38:06Z</time>
      </trkpt>
      <trkpt lat="44.46335" lon="1.39179">
        <ele>160</ele>
        <time>2019-01-20T18:39:06Z</time>
      </trkpt>
      <trkpt lat="44.46358" lon="1.39155">
        <ele>159</ele>
        <time>2019-01-20T18:40:06Z</time>
      </trkpt>
      <trkpt lat="44.46391" lon="1.39136">
        <ele>159</ele>
        <time>2019-01-20T18:41:06Z</time>
      </trkpt>
      <trkpt lat="44.46435" lon="1.39131">
        <ele>159</ele>
        <time>2019-01-20T18:42:06Z</time>
      </trkpt>
      <trkpt lat="44.46487" lon="1.39149">
        <ele>156</ele>
        <time>2019-01-20T18:43:06Z</time>
      </trkpt>
      <trkpt lat="44.46539" lon="1.39166">
        <ele>154</ele>
        <time>2019-01-20T18:44:06Z</time>
      </trkpt>
      <trkpt lat="44.46598" lon="1.39185">
        <ele>155</ele>
        <time>2019-01-20T18:45:06Z</time>
      </trkpt>
      <trkpt lat="44.46653" lon="1.39203">
        <ele>155</ele>
        <time>2019-01-20T18:46:06Z</time>
      </trkpt>
      <trkpt lat="44.46704" lon="1.3924">
        <ele>153</ele>
        <time>2019-01-20T18:47:06Z</time>
      </trkpt>
      <trkpt lat="44.46757" lon="1.3926">
        <ele>149</ele>
        <time>2019-01-20T18:48:06Z</time>
      </trkpt>
      <trkpt lat="44.46806" lon="1.39275">
        <ele>150</ele>
        <time>2019-01-20T18:49:06Z</time>
      </trkpt>
      <trkpt lat="44.46843" lon="1.39293">
        <ele>151</ele>
        <time>2019-01-20T18:50:06Z</time>
      </trkpt>
      <trkpt lat="44.46883" lon="1.39318">
        <ele>152</ele>
        <time>2019-01-20T18:51:06Z</time>
      </trkpt>
      <trkpt lat="44.46922" lon="1.39343">
        <ele>152</ele>
        <time>2019-01-20T18:52:06Z</time>
      </trkpt>
      <trkpt lat="44.46935" lon="1.39348">
        <ele>152</ele>
        <time>2019-01-20T18:53:06Z</time>
      </trkpt>
      <trkpt lat="44.46933" lon="1.39323">
        <ele>150</ele>
        <time>2019-01-20T18:54:06Z</time>
      </trkpt>
      <trkpt lat="44.46931" lon="1.393">
        <ele>150</ele>
        <time>2019-01-20T18:55:06Z</time>
      </trkpt>
      <trkpt lat="44.46961" lon="1.39315">
        <ele>149</ele>
        <time>2019-01-20T18:56:06Z</time>
      </trkpt>
      <trkpt lat="44.46994" lon="1.3932">
        <ele>147</ele>
        <time>2019-01-20T18:57:06Z</time>
      </trkpt>
      <trkpt lat="44.47005" lon="1.39307">
        <ele>149</ele>
        <time>2019-01-20T18:58:06Z</time>
      </trkpt>
      <trkpt lat="44.47044" lon="1.39309">
        <ele>151</ele>
        <time>2019-01-20T18:59:06Z</time>
      </trkpt>
      <trkpt lat="44.47063" lon="1.39311">
        <ele>152</ele>
        <time>2019-01-20T19:00:06Z</time>
      </trkpt>
      <trkpt lat="44.47071" lon="1.39331">
        <ele>149</ele>
        <time>2019-01-20T19:01:06Z</time>
      </trkpt>
      <trkpt lat="44.47105" lon="1.39342">
        <ele>151</ele>
        <time>2019-01-20T19:02:06Z</time>
      </trkpt>
      <trkpt lat="44.47141" lon="1.39366">
        <ele>152</ele>
        <time>2019-01-20T19:03:06Z</time>
      </trkpt>
      <trkpt lat="44.47181" lon="1.39394">
        <ele>151</ele>
        <time>2019-01-20T19:04:06Z</time>
      </trkpt>
      <trkpt lat="44.47201" lon="1.39424">
        <ele>150</ele>
        <time>2019-01-20T19:05:06Z</time>
      </trkpt>
      <trkpt lat="44.47242" lon="1.39454">
        <ele>150</ele>
        <time>2019-01-20T19:06:06Z</time>
      </trkpt>
      <trkpt lat="44.47274" lon="1.39481">
        <ele>150</ele>
        <time>2019-01-20T19:07:06Z</time>
      </trkpt>
      <trkpt lat="44.47313" lon="1.39498">
        <ele>149</ele>
        <time>2019-01-20T19:08:06Z</time>
      </trkpt>
      <trkpt lat="44.47349" lon="1.39523">
        <ele>150</ele>
        <time>2019-01-20T19:09:06Z</time>
      </trkpt>
      <trkpt lat="44.47381" lon="1.39546">
        <ele>149</ele>
        <time>2019-01-20T19:10:06Z</time>
      </trkpt>
      <trkpt lat="44.47424" lon="1.39586">
        <ele>143</ele>
        <time>2019-01-20T19:11:06Z</time>
      </trkpt>
      <trkpt lat="44.47463" lon="1.39602">
        <ele>143</ele>
        <time>2019-01-20T19:12:06Z</time>
      </trkpt>
      <trkpt lat="44.47497" lon="1.3962">
        <ele>141</ele>
        <time>2019-01-20T19:13:06Z</time>
      </trkpt>
      <trkpt lat="44.47526" lon="1.39625">
        <ele>141</ele>
        <time>2019-01-20T19:14:06Z</time>
      </trkpt>
      <trkpt lat="44.47542" lon="1.39629">
        <ele>141</ele>
        <time>2019-01-20T19:15:06Z</time>
      </trkpt>
      <trkpt lat="44.47546" lon="1.39645">
        <ele>139</ele>
        <time>2019-01-20T19:16:06Z</time>
      </trkpt>
      <trkpt lat="44.47543" lon="1.39669">
        <ele>137</ele>
        <time>2019-01-20T19:17:06Z</time>
      </trkpt>
      <trkpt lat="44.47543" lon="1.39697">
        <ele>140</ele>
        <time>2019-01-20T19:18:06Z</time>
      </trkpt>
      <trkpt lat="44.47543" lon="1.3971">
        <ele>142</ele>
        <time>2019-01-20T19:19:06Z</time>
      </trkpt>
      <trkpt lat="44.47532" lon="1.3971">
        <ele>142</ele>
        <time>2019-01-20T19:20:06Z</time>
      </trkpt>
      <trkpt lat="44.4752" lon="1.39707">
        <ele>141</ele>
        <time>2019-01-20T19:21:06Z</time>
      </trkpt>
      <trkpt lat="44.47512" lon="1.39745">
        <ele>145</ele>
        <time>2019-01-20T19:22:06Z</time>
      </trkpt>
      <trkpt lat="44.47507" lon="1.39791">
        <ele>151</ele>
        <time>2019-01-20T19:23:06Z</time>
      </trkpt>
      <trkpt lat="44.47504" lon="1.39813">
        <ele>154</ele>
        <time>2019-01-20T19:24:06Z</time>
      </trkpt>
      <trkpt lat="44.47526" lon="1.39807">
        <ele>155</ele>
        <time>2019-01-20T19:25:06Z</time>
      </trkpt>
      <trkpt lat="44.47581" lon="1.39782">
        <ele>153</ele>
        <time>2019-01-20T19:26:06Z</time>
      </trkpt>
      <trkpt lat="44.47622" lon="1.39795">
        <ele>158</ele>
        <time>2019-01-20T19:27:06Z</time>
      </trkpt>
      <trkpt lat="44.47666" lon="1.39827">
        <ele>170</ele>
        <time>2019-01-20T19:28:06Z</time>
      </trkpt>
      <trkpt lat="44.47714" lon="1.39869">
        <ele>176</ele>
        <time>2019-01-20T19:29:06Z</time>
      </trkpt>
      <trkpt lat="44.47732" lon="1.39906">
        <ele>182</ele>
        <time>2019-01-20T19:30:06Z</time>
      </trkpt>
      <trkpt lat="44.47746" lon="1.39953">
        <ele>186</ele>
        <time>2019-01-20T19:31:06Z</time>
      </trkpt>
      <trkpt lat="44.47767" lon="1.40024">
        <ele>189</ele>
        <time>2019-01-20T19:32:06Z</time>
      </trkpt>
      <trkpt lat="44.47798" lon="1.40024">
        <ele>187</ele>
        <time>2019-01-20T19:33:06Z</time>
      </trkpt>
      <trkpt lat="44.47864" lon="1.39992">
        <ele>188</ele>
        <time>2019-01-20T19:34:06Z</time>
      </trkpt>
      <trkpt lat="44.47922" lon="1.39946">
        <ele>189</ele>
        <time>2019-01-20T19:35:06Z</time>
      </trkpt>
      <trkpt lat="44.4798" lon="1.39926">
        <ele>185</ele>
        <time>2019-01-20T19:36:06Z</time>
      </trkpt>
      <trkpt lat="44.48035" lon="1.39885">
        <ele>184</ele>
        <time>2019-01-20T19:37:06Z</time>
      </trkpt>
      <trkpt lat="44.48075" lon="1.39829">
        <ele>187</ele>
        <time>2019-01-20T19:38:06Z</time>
      </trkpt>
      <trkpt lat="44.48095" lon="1.39779">
        <ele>186</ele>
        <time>2019-01-20T19:39:06Z</time>
      </trkpt>
      <trkpt lat="44.48091" lon="1.39733">
        <ele>184</ele>
        <time>2019-01-20T19:40:06Z</time>
      </trkpt>
      <trkpt lat="44.48103" lon="1.39689">
        <ele>178</ele>
        <time>2019-01-20T19:41:06Z</time>
      </trkpt>
      <trkpt lat="44.48123" lon="1.3964">
        <ele>173</ele>
        <time>2019-01-20T19:42:06Z</time>
      </trkpt>
      <trkpt lat="44.4815" lon="1.3961">
        <ele>170</ele>
        <time>2019-01-20T19:43:06Z</time>
      </trkpt>
      <trkpt lat="44.48192" lon="1.39577">
        <ele>167</ele>
        <time>2019-01-20T19:44:06Z</time>
      </trkpt>
      <trkpt lat="44.48235" lon="1.39594">
        <ele>168</ele>
        <time>2019-01-20T19:45:06Z</time>
      </trkpt>
      <trkpt lat="44.48269" lon="1.39588">
        <ele>166</ele>
        <time>2019-01-20T19:46:06Z</time>
      </trkpt>
      <trkpt lat="44.48308" lon="1.39574">
        <ele>164</ele>
        <time>2019-01-20T19:47:06Z</time>
      </trkpt>
      <trkpt lat="44.48343" lon="1.39604">
        <ele>160</ele>
        <time>2019-01-20T19:48:06Z</time>
      </trkpt>
      <trkpt lat="44.48366" lon="1.39657">
        <ele>155</ele>
        <time>2019-01-20T19:49:06Z</time>
      </trkpt>
      <trkpt lat="44.48392" lon="1.39681">
        <ele>152</ele>
        <time>2019-01-20T19:50:06Z</time>
      </trkpt>
      <trkpt lat="44.48442" lon="1.39701">
        <ele>146</ele>
        <time>2019-01-20T19:51:06Z</time>
      </trkpt>
      <trkpt lat="44.4848" lon="1.39724">
        <ele>141</ele>
        <time>2019-01-20T19:52:06Z</time>
      </trkpt>
      <trkpt lat="44.48503" lon="1.39668">
        <ele>139</ele>
        <time>2019-01-20T19:53:06Z</time>
      </trkpt>
      <trkpt lat="44.48523" lon="1.39609">
        <ele>139</ele>
        <time>2019-01-20T19:54:06Z</time>
      </trkpt>
      <trkpt lat="44.48545" lon="1.39545">
        <ele>137</ele>
        <time>2019-01-20T19:55:06Z</time>
      </trkpt>
      <trkpt lat="44.48551" lon="1.3951">
        <ele>136</ele>
        <time>2019-01-20T19:56:06Z</time>
      </trkpt>
      <trkpt lat="44.48561" lon="1.39443">
        <ele>134</ele>
        <time>2019-01-20T19:57:06Z</time>
      </trkpt>
      <trkpt lat="44.48572" lon="1.39444">
        <ele>133</ele>
        <time>2019-01-20T19:58:06Z</time>
      </trkpt>
      <trkpt lat="44.48582" lon="1.39404">
        <ele>132</ele>
        <time>2019-01-20T19:59:06Z</time>
      </trkpt>
      <trkpt lat="44.48586" lon="1.39377">
        <ele>131</ele>
        <time>2019-01-20T20:00:06Z</time>
      </trkpt>
      <trkpt lat="44.48612" lon="1.39389">
        <ele>130</ele>
        <time>2019-01-20T20:01:06Z</time>
      </trkpt>
      <trkpt lat="44.48627" lon="1.39414">
        <ele>130</ele>
        <time>2019-01-20T20:02:06Z</time>
      </trkpt>
      <trkpt lat="44.48659" lon="1.39413">
        <ele>129</ele>
        <time>2019-01-20T20:03:06Z</time>
      </trkpt>
      <trkpt lat="44.4867" lon="1.39443">
        <ele>129</ele>
        <time>2019-01-20T20:04:06Z</time>
      </trkpt>
      <trkpt lat="44.48678" lon="1.3949">
        <ele>130</ele>
        <time>2019-01-20T20:05:06Z</time>
      </trkpt>
      <trkpt lat="44.48688" lon="1.39539">
        <ele>129</ele>
        <time>2019-01-20T20:06:06Z</time>
      </trkpt>
      <trkpt lat="44.48684" lon="1.39586">
        <ele>130</ele>
        <time>2019-01-20T20:07:06Z</time>
      </trkpt>
      <trkpt lat="44.48721" lon="1.39584">
        <ele>127</ele>
        <time>2019-01-20T20:08:06Z</time>
      </trkpt>
      <trkpt lat="44.4876" lon="1.3959">
        <ele>125</ele>
        <time>2019-01-20T20:09:06Z</time>
      </trkpt>
      <trkpt lat="44.48789" lon="1.39584">
        <ele>124</ele>
        <time>2019-01-20T20:10:06Z</time>
      </trkpt>
      <trkpt lat="44.48816" lon="1.39587">
        <ele>123</ele>
        <time>2019-01-20T20:11:06Z</time>
      </trkpt>
      <trkpt lat="44.48822" lon="1.39613">
        <ele>123</ele>
        <time>2019-01-20T20:12:06Z</time>
      </trkpt>
      <trkpt lat="44.48822" lon="1.39653">
        <ele>123</ele>
        <time>2019-01-20T20:13:06Z</time>
      </trkpt>
      <trkpt lat="44.48793" lon="1.39706">
        <ele>123</ele>
        <time>2019-01-20T20:14:06Z</time>
      </trkpt>
      <trkpt lat="44.48757" lon="1.39759">
        <ele>124</ele>
        <time>2019-01-20T20:15:06Z</time>
      </trkpt>
      <trkpt lat="44.48715" lon="1.3982">
        <ele>126</ele>
        <time>2019-01-20T20:16:06Z</time>
      </trkpt>
      <trkpt lat="44.48681" lon="1.3988">
        <ele>127</ele>
        <time>2019-01-20T20:17:06Z</time>
      </trkpt>
      <trkpt lat="44.48662" lon="1.39915">
        <ele>127</ele>
        <time>2019-01-20T20:18:06Z</time>
      </trkpt>
      <trkpt lat="44.48658" lon="1.39957">
        <ele>125</ele>
        <time>2019-01-20T20:19:06Z</time>
      </trkpt>
      <trkpt lat="44.4865" lon="1.39991">
        <ele>125</ele>
        <time>2019-01-20T20:20:06Z</time>
      </trkpt>
      <trkpt lat="44.48659" lon="1.40029">
        <ele>121</ele>
        <time>2019-01-20T20:21:06Z</time>
      </trkpt>
      <trkpt lat="44.48678" lon="1.40072">
        <ele>118</ele>
        <time>2019-01-20T20:22:06Z</time>
      </trkpt>
      <trkpt lat="44.48673" lon="1.40095">
        <ele>118</ele>
        <time>2019-01-20T20:23:06Z</time>
      </trkpt>
      <trkpt lat="44.48653" lon="1.40144">
        <ele>118</ele>
        <time>2019-01-20T20:24:06Z</time>
      </trkpt>
      <trkpt lat="44.48638" lon="1.4019">
        <ele>117</ele>
        <time>2019-01-20T20:25:06Z</time>
      </trkpt>
      <trkpt lat="44.48613" lon="1.4026">
        <ele>117</ele>
        <time>2019-01-20T20:26:06Z</time>
      </trkpt>
      <trkpt lat="44.48571" lon="1.40301">
        <ele>117</ele>
        <time>2019-01-20T20:27:06Z</time>
      </trkpt>
      <trkpt lat="44.48554" lon="1.40356">
        <ele>116</ele>
        <time>2019-01-20T20:28:06Z</time>
      </trkpt>
      <trkpt lat="44.48516" lon="1.40388">
        <ele>115</ele>
        <time>2019-01-20T20:29:06Z</time>
      </trkpt>
      <trkpt lat="44.48484" lon="1.40409">
        <ele>116</ele>
        <time>2019-01-20T20:30:06Z</time>
      </trkpt>
      <trkpt lat="44.48447" lon="1.40448">
        <ele>117</ele>
        <time>2019-01-20T20:31:06Z</time>
      </trkpt>
      <trkpt lat="44.48412" lon="1.40483">
        <ele>117</ele>
        <time>2019-01-20T20:32:06Z</time>
      </trkpt>
      <trkpt lat="44.48365" lon="1.40505">
        <ele>114</ele>
        <time>2019-01-20T20:33:06Z</time>
      </trkpt>
      <trkpt lat="44.48328" lon="1.40518">
        <ele>113</ele>
        <time>2019-01-20T20:34:06Z</time>
      </trkpt>
      <trkpt lat="44.48315" lon="1.40524">
        <ele>113</ele>
        <time>2019-01-20T20:35:06Z</time>
      </trkpt>
      <trkpt lat="44.48306" lon="1.40539">
        <ele>114</ele>
        <time>2019-01-20T20:36:06Z</time>
      </trkpt>
      <trkpt lat="44.48275" lon="1.40545">
        <ele>115</ele>
        <time>2019-01-20T20:37:06Z</time>
      </trkpt>
      <trkpt lat="44.48255" lon="1.40544">
        <ele>115</ele>
        <time>2019-01-20T20:38:06Z</time>
      </trkpt>
      <trkpt lat="44.48239" lon="1.40549">
        <ele>115</ele>
        <time>2019-01-20T20:39:06Z</time>
      </trkpt>
      <trkpt lat="44.48215" lon="1.4055">
        <ele>116</ele>
        <time>2019-01-20T20:40:06Z</time>
      </trkpt>
      <trkpt lat="44.48178" lon="1.40564">
        <ele>114</ele>
        <time>2019-01-20T20:41:06Z</time>
      </trkpt>
      <trkpt lat="44.48142" lon="1.40574">
        <ele>113</ele>
        <time>2019-01-20T20:42:06Z</time>
      </trkpt>
      <trkpt lat="44.48094" lon="1.40577">
        <ele>113</ele>
        <time>2019-01-20T20:43:06Z</time>
      </trkpt>
      <trkpt lat="44.48055" lon="1.4057">
        <ele>115</ele>
        <time>2019-01-20T20:44:06Z</time>
      </trkpt>
      <trkpt lat="44.48023" lon="1.40559">
        <ele>118</ele>
        <time>2019-01-20T20:45:06Z</time>
      </trkpt>
      <trkpt lat="44.47989" lon="1.40543">
        <ele>122</ele>
        <time>2019-01-20T20:46:06Z</time>
      </trkpt>
      <trkpt lat="44.47964" lon="1.40523">
        <ele>125</ele>
        <time>2019-01-20T20:47:06Z</time>
      </trkpt>
      <trkpt lat="44.47924" lon="1.40512">
        <ele>126</ele>
        <time>2019-01-20T20:48:06Z</time>
      </trkpt>
      <trkpt lat="44.47911" lon="1.40511">
        <ele>127</ele>
        <time>2019-01-20T20:49:06Z</time>
      </trkpt>
      <trkpt lat="44.47891" lon="1.40514">
        <ele>127</ele>
        <time>2019-01-20T20:50:06Z</time>
      </trkpt>
      <trkpt lat="44.47873" lon="1.40516">
        <ele>128</ele>
        <time>2019-01-20T20:51:06Z</time>
      </trkpt>
      <trkpt lat="44.47843" lon="1.40519">
        <ele>130</ele>
        <time>2019-01-20T20:52:06Z</time>
      </trkpt>
      <trkpt lat="44.4782" lon="1.40523">
        <ele>131</ele>
        <time>2019-01-20T20:53:06Z</time>
      </trkpt>
      <trkpt lat="44.47804" lon="1.40536">
        <ele>130</ele>
        <time>2019-01-20T20:54:06Z</time>
      </trkpt>
      <trkpt lat="44.47784" lon="1.40545">
        <ele>131</ele>
        <time>2019-01-20T20:55:06Z</time>
      </trkpt>
      <trkpt lat="44.47771" lon="1.40572">
        <ele>129</ele>
        <time>2019-01-20T20:56:06Z</time>
      </trkpt>
      <trkpt lat="44.4776" lon="1.40588">
        <ele>129</ele>
        <time>2019-01-20T20:57:06Z</time>
      </trkpt>
      <trkpt lat="44.47748" lon="1.4059">
        <ele>130</ele>
        <time>2019-01-20T20:58:06Z</time>
      </trkpt>
      <trkpt lat="44.47729" lon="1.40607">
        <ele>131</ele>
        <time>2019-01-20T20:59:06Z</time>
      </trkpt>
      <trkpt lat="44.47687" lon="1.40631">
        <ele>135</ele>
        <time>2019-01-20T21:00:06Z</time>
      </trkpt>
      <trkpt lat="44.47666" lon="1.40643">
        <ele>138</ele>
        <time>2019-01-20T21:01:06Z</time>
      </trkpt>
      <trkpt lat="44.47654" lon="1.40658">
        <ele>138</ele>
        <time>2019-01-20T21:02:06Z</time>
      </trkpt>
      <trkpt lat="44.47642" lon="1.40682">
        <ele>136</ele>
        <time>2019-01-20T21:03:06Z</time>
      </trkpt>
      <trkpt lat="44.47616" lon="1.40717">
        <ele>136</ele>
        <time>2019-01-20T21:04:06Z</time>
      </trkpt>
      <trkpt lat="44.47588" lon="1.40748">
        <ele>137</ele>
        <time>2019-01-20T21:05:06Z</time>
      </trkpt>
      <trkpt lat="44.47579" lon="1.40769">
        <ele>135</ele>
        <time>2019-01-20T21:06:06Z</time>
      </trkpt>
      <trkpt lat="44.47556" lon="1.4078">
        <ele>135</ele>
        <time>2019-01-20T21:07:06Z</time>
      </trkpt>
      <trkpt lat="44.47546" lon="1.40815">
        <ele>131</ele>
        <time>2019-01-20T21:08:06Z</time>
      </trkpt>
      <trkpt lat="44.47539" lon="1.40823">
        <ele>131</ele>
        <time>2019-01-20T21:09:06Z</time>
      </trkpt>
      <trkpt lat="44.47521" lon="1.40838">
        <ele>132</ele>
        <time>2019-01-20T21:10:06Z</time>
      </trkpt>
      <trkpt lat="44.47502" lon="1.40855">
        <ele>131</ele>
        <time>2019-01-20T21:11:06Z</time>
      </trkpt>
      <trkpt lat="44.47479" lon="1.40856">
        <ele>132</ele>
        <time>2019-01-20T21:12:06Z</time>
      </trkpt>
      <trkpt lat="44.47448" lon="1.4087">
        <ele>131</ele>
        <time>2019-01-20T21:13:06Z</time>
      </trkpt>
      <trkpt lat="44.47441" lon="1.40877">
        <ele>131</ele>
        <time>2019-01-20T21:14:06Z</time>
      </trkpt>
      <trkpt lat="44.47436" lon="1.40888">
        <ele>129</ele>
        <time>2019-01-20T21:15:06Z</time>
      </trkpt>
      <trkpt lat="44.47426" lon="1.4089">
        <ele>130</ele>
        <time>2019-01-20T21:16:06Z</time>
      </trkpt>
      <trkpt lat="44.47404" lon="1.40883">
        <ele>133</ele>
        <time>2019-01-20T21:17:06Z</time>
      </trkpt>
      <trkpt lat="44.47379" lon="1.4087">
        <ele>136</ele>
        <time>2019-01-20T21:18:06Z</time>
      </trkpt>
      <trkpt lat="44.47348" lon="1.40846">
        <ele>138</ele>
        <time>2019-01-20T21:19:06Z</time>
      </trkpt>
      <trkpt lat="44.47327" lon="1.40824">
        <ele>138</ele>
        <time>2019-01-20T21:20:06Z</time>
      </trkpt>
      <trkpt lat="44.47315" lon="1.408">
        <ele>138</ele>
        <time>2019-01-20T21:21:06Z</time>
      </trkpt>
      <trkpt lat="44.47303" lon="1.4075">
        <ele>137</ele>
        <time>2019-01-20T21:22:06Z</time>
      </trkpt>
      <trkpt lat="44.4729" lon="1.40749">
        <ele>136</ele>
        <time>2019-01-20T21:23:06Z</time>
      </trkpt>
      <trkpt lat="44.47283" lon="1.40746">
        <ele>136</ele>
        <time>2019-01-20T21:24:06Z</time>
      </trkpt>
      <trkpt lat="44.47266" lon="1.40757">
        <ele>136</ele>
        <time>2019-01-20T21:25:06Z</time>
      </trkpt>
      <trkpt lat="44.47237" lon="1.40753">
        <ele>136</ele>
        <time>2019-01-20T21:26:06Z</time>
      </trkpt>
      <trkpt lat="44.47219" lon="1.40739">
        <ele>137</ele>
        <time>2019-01-20T21:27:06Z</time>
      </trkpt>
      <trkpt lat="44.47188" lon="1.40726">
        <ele>139</ele>
        <time>2019-01-20T21:28:06Z</time>
      </trkpt>
      <trkpt lat="44.47165" lon="1.4074">
        <ele>140</ele>
        <time>2019-01-20T21:29:06Z</time>
      </trkpt>
      <trkpt lat="44.47146" lon="1.4077">
        <ele>141</ele>
        <time>2019-01-20T21:30:06Z</time>
      </trkpt>
      <trkpt lat="44.47095" lon="1.40792">
        <ele>143</ele>
        <time>2019-01-20T21:31:06Z</time>
      </trkpt>
      <trkpt lat="44.47075" lon="1.40794">
        <ele>143</ele>
        <time>2019-01-20T21:32:06Z</time>
      </trkpt>
      <trkpt lat="44.4703" lon="1.40794">
        <ele>142</ele>
        <time>2019-01-20T21:33:06Z</time>
      </trkpt>
      <trkpt lat="44.47008" lon="1.40796">
        <ele>142</ele>
        <time>2019-01-20T21:34:06Z</time>
      </trkpt>
      <trkpt lat="44.46986" lon="1.40802">
        <ele>142</ele>
        <time>2019-01-20T21:35:06Z</time>
      </trkpt>
      <trkpt lat="44.46965" lon="1.4081">
        <ele>142</ele>
        <time>2019-01-20T21:36:06Z</time>
      </trkpt>
      <trkpt lat="44.46954" lon="1.40846">
        <ele>143</ele>
        <time>2019-01-20T21:37:06Z</time>
      </trkpt>
      <trkpt lat="44.46962" lon="1.40877">
        <ele>144</ele>
        <time>2019-01-20T21:38:06Z</time>
      </trkpt>
      <trkpt lat="44.4696" lon="1.40899">
        <ele>146</ele>
        <time>2019-01-20T21:39:06Z</time>
      </trkpt>
      <trkpt lat="44.46945" lon="1.40921">
        <ele>146</ele>
        <time>2019-01-20T21:40:06Z</time>
      </trkpt>
      <trkpt lat="44.46928" lon="1.40943">
        <ele>146</ele>
        <time>2019-01-20T21:41:06Z</time>
      </trkpt>
      <trkpt lat="44.46932" lon="1.40962">
        <ele>146</ele>
        <time>2019-01-20T21:42:06Z</time>
      </trkpt>
      <trkpt lat="44.46948" lon="1.40979">
        <ele>147</ele>
        <time>2019-01-20T21:43:06Z</time>
      </trkpt>
      <trkpt lat="44.46958" lon="1.40997">
        <ele>147</ele>
        <time>2019-01-20T21:44:06Z</time>
      </trkpt>
      <trkpt lat="44.46969" lon="1.41022">
        <ele>148</ele>
        <time>2019-01-20T21:45:06Z</time>
      </trkpt>
    </trkseg>
  </trk>
</gpx>